Bridge City, Texas
Current Conditions -  °F | °C
As of 11:53 PM on Friday 28 Nov 2014 (Local Time) from KBPT Reporting Station
Clear Clear  
Wind Chill: 61°   Ceiling: Unl
Heat Index: 61°   Visibility: 10mi
Dew Point: 58°   Wind: 8mph
Humidity: 90%   Direction: 170°S
Pressure: 30.15"   Gusts: NA
Location:  30.02°N, 93.84°W
Report Text: KBPT 290553Z AUTO 17007KT 10SM CLR 16/14 A3015 RMK AO2 SLP208 T01610144 10167 20139 402110039 58012
Loading
Personal Weather Stations






























Interactive Weather Map New forecast layout! Learn more

10-Day Weather Forecast

Advertisements
Track Severe Weather on mobile